Time;durP1;ratioP1;P1;durP2;ratioP2;P2;SDS_P1;SDS_P2;PMS_P1;PMS_P2;Temp;Humidity;BMP_temperature;BMP_pressure;BME280_temperature;BME280_humidity;BME280_pressure;Samples;Min_cycle;Max_cycle;Signal;HPM_P1;HPM_P2
2024/01/02 00:00:05;;;;;;;2.40;2.20;;;7.30;99.90;;;;;;5041137;28;20543;-80
2024/01/02 00:02:33;;;;;;;2.50;1.90;;;7.30;99.90;;;;;;5042784;28;20482;-80
2024/01/02 00:05:03;;;;;;;2.47;2.27;;;7.30;99.90;;;;;;5039998;28;21002;-80
2024/01/02 00:07:31;;;;;;;2.43;2.20;;;7.20;99.90;;;;;;5041106;28;20459;-81
2024/01/02 00:09:59;;;;;;;2.53;2.30;;;7.20;99.90;;;;;;5041036;28;20523;-80
2024/01/02 00:12:27;;;;;;;2.17;2.00;;;7.30;99.90;;;;;;5037752;28;20459;-80
2024/01/02 00:14:57;;;;;;;2.70;2.00;;;7.20;99.90;;;;;;5040583;28;20965;-81
2024/01/02 00:17:25;;;;;;;2.30;2.03;;;7.30;99.90;;;;;;5041029;28;20491;-80
2024/01/02 00:19:53;;;;;;;1.90;1.80;;;7.30;99.90;;;;;;5042593;28;20472;-80
2024/01/02 00:22:22;;;;;;;2.73;1.90;;;7.30;99.90;;;;;;5040156;28;20483;-80
2024/01/02 00:24:50;;;;;;;2.97;1.90;;;7.30;99.90;;;;;;5042792;28;20451;-80
2024/01/02 00:27:18;;;;;;;2.00;1.90;;;7.30;99.90;;;;;;5041424;28;20440;-82
2024/01/02 00:29:47;;;;;;;1.73;1.70;;;7.30;99.90;;;;;;5037659;28;20472;-80
2024/01/02 00:32:16;;;;;;;2.83;1.90;;;7.30;99.90;;;;;;5041727;28;20463;-82
2024/01/02 00:34:45;;;;;;;2.10;2.00;;;7.30;99.90;;;;;;5042129;28;20461;-81
2024/01/02 00:37:13;;;;;;;1.70;1.60;;;7.20;99.90;;;;;;5039296;28;20460;-80
2024/01/02 00:39:41;;;;;;;3.03;1.90;;;7.30;99.90;;;;;;5042503;28;20546;-81
2024/01/02 00:42:10;;;;;;;1.77;1.67;;;7.30;99.90;;;;;;5041397;28;20445;-81
2024/01/02 00:44:38;;;;;;;1.90;1.80;;;7.30;99.90;;;;;;5042565;28;20448;-81
2024/01/02 00:47:09;;;;;;;1.90;1.80;;;7.20;99.90;;;;;;5035661;28;20464;-80
2024/01/02 00:49:39;;;;;;;4.00;2.30;;;7.20;99.90;;;;;;5038280;28;20477;-81
2024/01/02 00:52:07;;;;;;;3.03;2.23;;;7.20;99.90;;;;;;5040001;28;20539;-82
2024/01/02 00:54:36;;;;;;;2.40;1.87;;;7.20;99.90;;;;;;5041597;28;20460;-81
2024/01/02 00:57:04;;;;;;;1.93;1.83;;;7.30;99.90;;;;;;5039673;28;20503;-80
2024/01/02 00:59:32;;;;;;;1.73;1.73;;;7.20;99.90;;;;;;5037744;28;20490;-80
2024/01/02 01:02:01;;;;;;;1.80;1.80;;;7.30;99.90;;;;;;5040147;28;20883;-80
2024/01/02 01:04:29;;;;;;;2.60;2.13;;;7.30;99.90;;;;;;5040146;28;20543;-80
2024/01/02 01:06:59;;;;;;;1.90;1.80;;;7.30;99.90;;;;;;5038951;28;20486;-80
2024/01/02 01:09:27;;;;;;;1.90;1.80;;;7.30;99.90;;;;;;5043717;28;20993;-81
2024/01/02 01:11:55;;;;;;;2.20;2.10;;;7.40;99.90;;;;;;5037266;28;20519;-80
2024/01/02 01:14:24;;;;;;;1.97;1.87;;;7.30;99.90;;;;;;5039810;28;20858;-80
2024/01/02 01:16:52;;;;;;;2.33;2.13;;;7.40;99.90;;;;;;5034813;28;20476;-79
2024/01/02 01:19:20;;;;;;;2.20;2.10;;;7.30;99.90;;;;;;5036272;28;20464;-81
2024/01/02 01:21:49;;;;;;;2.03;1.93;;;7.30;99.90;;;;;;5040531;28;20443;-79
2024/01/02 01:24:18;;;;;;;3.80;2.00;;;7.40;99.90;;;;;;5040630;28;20461;-81
2024/01/02 01:26:46;;;;;;;2.00;1.90;;;7.40;99.90;;;;;;5038869;28;20456;-80
2024/01/02 01:29:17;;;;;;;2.00;1.90;;;7.30;99.90;;;;;;5038272;28;20475;-80
2024/01/02 01:31:45;;;;;;;2.70;2.47;;;7.40;99.90;;;;;;5036366;28;20532;-81
2024/01/02 01:34:14;;;;;;;2.17;2.07;;;7.30;99.90;;;;;;5035518;28;20457;-81
2024/01/02 01:36:42;;;;;;;2.20;1.90;;;7.30;99.90;;;;;;5036301;28;20567;-80
2024/01/02 01:39:11;;;;;;;2.23;2.13;;;7.20;99.90;;;;;;5051573;28;20475;-80
2024/01/02 01:41:40;;;;;;;1.80;1.80;;;7.20;99.90;;;;;;5039480;28;20437;-81
2024/01/02 01:44:08;;;;;;;2.10;2.00;;;7.10;99.90;;;;;;5031681;28;20966;-81
2024/01/02 01:46:38;;;;;;;2.10;2.00;;;7.10;99.90;;;;;;5038553;28;20534;-80
2024/01/02 01:49:08;;;;;;;2.83;2.47;;;7.20;99.90;;;;;;5037285;28;20567;-80
2024/01/02 01:51:40;;;;;;;1.80;1.77;;;7.20;99.90;;;;;;5036472;28;20899;-80
2024/01/02 01:54:10;;;;;;;2.70;1.80;;;7.20;99.90;;;;;;5038494;28;20458;-81
2024/01/02 01:56:41;;;;;;;1.83;1.83;;;7.30;99.90;;;;;;5036617;28;21008;-80
2024/01/02 01:59:12;;;;;;;2.17;1.90;;;7.30;99.90;;;;;;5037550;28;20472;-80
2024/01/02 02:01:41;;;;;;;2.10;1.90;;;7.40;99.90;;;;;;5038295;28;20456;-81
2024/01/02 02:04:09;;;;;;;2.23;2.13;;;7.30;99.90;;;;;;5037670;28;20506;-80
2024/01/02 02:06:37;;;;;;;2.10;2.00;;;7.40;99.90;;;;;;5041855;28;20930;-82
2024/01/02 02:09:06;;;;;;;2.07;1.90;;;7.30;99.90;;;;;;5039188;28;20544;-80
2024/01/02 02:11:36;;;;;;;1.90;1.90;;;7.30;99.90;;;;;;5041572;28;20550;-81
2024/01/02 02:14:08;;;;;;;2.20;2.10;;;7.30;99.90;;;;;;5042603;28;20452;-80
2024/01/02 02:16:36;;;;;;;2.40;2.30;;;7.30;99.90;;;;;;5043522;28;20540;-80
2024/01/02 02:19:05;;;;;;;2.10;2.00;;;7.30;99.90;;;;;;5041365;28;20468;-80
2024/01/02 02:21:34;;;;;;;2.20;2.10;;;7.40;1.00;;;;;;5042659;28;20537;-79
2024/01/02 02:24:04;;;;;;;2.00;2.00;;;7.30;1.00;;;;;;5041663;28;20448;-82
2024/01/02 02:26:33;;;;;;;2.10;2.00;;;7.40;1.00;;;;;;5040653;28;20478;-80
2024/01/02 02:29:01;;;;;;;2.30;2.07;;;7.30;1.00;;;;;;5038728;28;20535;-80
2024/01/02 02:31:30;;;;;;;2.50;2.10;;;7.30;1.00;;;;;;5039364;28;20481;-81
2024/01/02 02:33:58;;;;;;;2.80;2.60;;;7.40;1.00;;;;;;5043093;28;20453;-79
2024/01/02 02:36:28;;;;;;;2.50;2.40;;;7.20;1.00;;;;;;5041660;28;20475;-79
2024/01/02 02:38:57;;;;;;;2.47;2.20;;;7.30;1.00;;;;;;5040511;28;20885;-80
2024/01/02 02:41:26;;;;;;;2.43;2.33;;;7.30;1.00;;;;;;5043495;28;20452;-80
2024/01/02 02:43:55;;;;;;;2.10;2.10;;;7.30;7.40;;;;;;5040015;28;20444;-81
2024/01/02 02:46:23;;;;;;;2.50;2.40;;;7.30;2.50;;;;;;5038743;28;20839;-81
2024/01/02 02:48:51;;;;;;;2.33;2.23;;;7.30;99.90;;;;;;5039575;28;20570;-80
2024/01/02 02:51:20;;;;;;;2.50;2.40;;;7.20;99.90;;;;;;5037389;28;20523;-81
2024/01/02 02:53:48;;;;;;;2.53;2.20;;;7.10;99.90;;;;;;5039345;28;20552;-80
2024/01/02 02:56:16;;;;;;;2.40;2.40;;;7.00;99.90;;;;;;5035406;28;20481;-80
2024/01/02 02:58:46;;;;;;;2.30;2.30;;;7.00;99.90;;;;;;5036495;28;20473;-80
2024/01/02 03:01:22;;;;;;;2.97;2.87;;;7.10;99.90;;;;;;5033023;28;21136;-81
2024/01/02 03:03:50;;;;;;;2.80;2.60;;;7.10;1.00;;;;;;5037105;28;20551;-80
2024/01/02 03:06:19;;;;;;;2.73;2.63;;;7.10;1.00;;;;;;5031933;28;20463;-80
2024/01/02 03:08:47;;;;;;;2.90;2.80;;;7.00;1.00;;;;;;5034984;28;20683;-81
2024/01/02 03:11:16;;;;;;;2.80;2.70;;;7.00;1.00;;;;;;5039116;28;20588;-80
2024/01/02 03:13:45;;;;;;;2.70;2.60;;;7.00;99.90;;;;;;5037076;28;21034;-80
2024/01/02 03:16:16;;;;;;;2.70;2.60;;;7.00;1.00;;;;;;5038204;28;20542;-80
2024/01/02 03:18:44;;;;;;;2.47;2.40;;;7.00;1.00;;;;;;5036447;28;20527;-80
2024/01/02 03:21:12;;;;;;;2.80;2.70;;;6.90;1.00;;;;;;5032319;28;20444;-80
2024/01/02 03:23:41;;;;;;;2.80;2.70;;;7.00;1.00;;;;;;5033880;28;20503;-80
2024/01/02 03:26:11;;;;;;;2.80;2.80;;;7.00;56.10;;;;;;5036182;28;20464;-81
2024/01/02 03:28:40;;;;;;;2.80;2.80;;;6.90;99.90;;;;;;5039517;28;20464;-81
2024/01/02 03:31:09;;;;;;;2.70;2.70;;;6.90;99.90;;;;;;5036164;28;20472;-81
2024/01/02 03:33:36;;;;;;;2.80;2.70;;;6.90;99.90;;;;;;5035483;28;21036;-81
2024/01/02 03:36:05;;;;;;;3.10;3.00;;;6.90;99.90;;;;;;5034873;28;21071;-80
2024/01/02 03:38:33;;;;;;;3.10;2.90;;;7.00;99.90;;;;;;5037270;28;20472;-80
2024/01/02 03:41:02;;;;;;;4.70;4.60;;;6.90;99.90;;;;;;5039612;28;20455;-81
2024/01/02 03:43:30;;;;;;;3.20;3.10;;;6.90;1.00;;;;;;5032102;28;20472;-79
2024/01/02 03:45:58;;;;;;;2.97;2.87;;;6.90;99.90;;;;;;5036203;28;20484;-81
2024/01/02 03:48:28;;;;;;;2.97;2.90;;;7.00;1.00;;;;;;5039943;28;20831;-81
2024/01/02 03:50:56;;;;;;;3.17;3.03;;;6.90;1.00;;;;;;5037746;28;20467;-79
2024/01/02 03:53:25;;;;;;;2.90;2.80;;;6.90;1.00;;;;;;5038062;28;20494;-81
2024/01/02 03:55:53;;;;;;;3.20;3.00;;;6.80;1.00;;;;;;5036071;28;20447;-80
2024/01/02 03:58:21;;;;;;;2.90;2.80;;;6.90;99.90;;;;;;5035593;28;20475;-81
2024/01/02 04:00:51;;;;;;;3.20;3.10;;;7.00;99.90;;;;;;5038135;28;20542;-81
2024/01/02 04:03:20;;;;;;;3.50;3.40;;;7.00;99.90;;;;;;5039063;28;20453;-81
2024/01/02 04:05:50;;;;;;;3.00;2.90;;;7.00;73.50;;;;;;5040260;28;21039;-81
2024/01/02 04:08:18;;;;;;;3.70;3.60;;;7.00;1.00;;;;;;5036921;28;20465;-80
2024/01/02 04:10:47;;;;;;;3.20;3.10;;;7.00;1.00;;;;;;5038959;28;20463;-79
2024/01/02 04:13:15;;;;;;;3.40;3.30;;;6.90;99.90;;;;;;5041522;28;20546;-81
2024/01/02 04:15:43;;;;;;;3.27;3.27;;;6.90;99.90;;;;;;5041676;28;20980;-81
2024/01/02 04:18:12;;;;;;;3.50;3.40;;;6.90;99.90;;;;;;5039535;28;20477;-81
2024/01/02 04:20:41;;;;;;;3.40;3.30;;;7.00;99.90;;;;;;5040347;28;20540;-80
2024/01/02 04:23:11;;;;;;;3.50;3.40;;;6.90;99.90;;;;;;5042152;28;20432;-80
2024/01/02 04:25:39;;;;;;;3.60;3.50;;;6.80;99.90;;;;;;5039438;28;20467;-81
2024/01/02 04:28:08;;;;;;;3.70;3.60;;;6.90;99.90;;;;;;5025032;28;20550;-80
2024/01/02 04:30:37;;;;;;;3.80;3.70;;;6.80;1.00;;;;;;5041675;28;20559;-81
2024/01/02 04:33:06;;;;;;;3.60;3.50;;;6.80;99.90;;;;;;5042767;28;20996;-81
2024/01/02 04:35:35;;;;;;;3.50;3.40;;;6.80;99.90;;;;;;5042595;28;20521;-82
2024/01/02 04:38:03;;;;;;;3.60;3.50;;;6.80;1.00;;;;;;5041094;28;20535;-80
2024/01/02 04:40:33;;;;;;;3.80;3.70;;;6.80;99.90;;;;;;5037845;28;20537;-81
2024/01/02 04:43:02;;;;;;;3.60;3.50;;;6.90;1.00;;;;;;5040860;28;20935;-80
2024/01/02 04:45:30;;;;;;;4.00;3.90;;;6.90;1.00;;;;;;5039221;28;20463;-81
2024/01/02 04:47:58;;;;;;;3.57;3.50;;;6.70;1.00;;;;;;5039883;28;20451;-81
2024/01/02 04:50:27;;;;;;;3.80;3.70;;;6.80;99.90;;;;;;5039027;28;20565;-80
2024/01/02 04:52:56;;;;;;;3.70;3.60;;;6.80;99.90;;;;;;5042276;28;20479;-81
2024/01/02 04:55:24;;;;;;;3.93;3.83;;;6.80;10.70;;;;;;5055000;28;20512;-80
2024/01/02 04:57:54;;;;;;;4.00;3.80;;;6.80;1.00;;;;;;5042306;28;20479;-82
2024/01/02 05:00:22;;;;;;;4.23;4.10;;;6.80;29.30;;;;;;5037500;28;20472;-80
2024/01/02 05:02:56;;;;;;;4.57;4.37;;;6.80;1.00;;;;;;5036998;28;20447;-80
2024/01/02 05:05:24;;;;;;;3.93;3.83;;;6.80;1.00;;;;;;5042858;28;20456;-79
2024/01/02 05:07:53;;;;;;;4.23;4.13;;;6.80;99.90;;;;;;5042773;28;21346;-80
2024/01/02 05:10:22;;;;;;;4.00;3.90;;;6.70;99.90;;;;;;5040954;28;20468;-78
2024/01/02 05:12:51;;;;;;;4.20;4.10;;;6.70;1.00;;;;;;5039886;28;20567;-80
2024/01/02 05:15:20;;;;;;;4.20;4.10;;;6.80;99.90;;;;;;5055210;28;20453;-80
2024/01/02 05:17:49;;;;;;;4.40;4.30;;;6.70;1.00;;;;;;5040743;28;20452;-79
2024/01/02 05:20:17;;;;;;;4.10;3.90;;;6.70;99.90;;;;;;5036893;28;20552;-80
2024/01/02 05:22:46;;;;;;;4.43;4.33;;;6.70;1.00;;;;;;5041463;28;20455;-80
2024/01/02 05:25:16;;;;;;;4.30;4.20;;;6.70;99.90;;;;;;5040331;28;20451;-79
2024/01/02 05:27:44;;;;;;;4.50;4.40;;;6.60;99.90;;;;;;5041902;28;20448;-81
2024/01/02 05:30:13;;;;;;;4.40;4.30;;;6.60;99.90;;;;;;5039801;28;20469;-80
2024/01/02 05:32:43;;;;;;;4.40;4.30;;;6.60;99.90;;;;;;5042336;28;21089;-80
2024/01/02 05:35:12;;;;;;;4.70;4.50;;;6.60;99.90;;;;;;5040694;28;20458;-81
2024/01/02 05:37:40;;;;;;;4.40;4.23;;;6.60;1.00;;;;;;5034983;28;20503;-79
2024/01/02 05:40:10;;;;;;;4.63;4.53;;;6.60;1.00;;;;;;5039081;28;20472;-79
2024/01/02 05:42:38;;;;;;;4.80;4.40;;;6.50;40.30;;;;;;5042108;28;20449;-80
2024/01/02 05:45:07;;;;;;;4.30;4.10;;;6.70;99.90;;;;;;5041206;28;20531;-79
2024/01/02 05:47:35;;;;;;;4.40;4.30;;;6.70;99.90;;;;;;5039946;28;21112;-79
2024/01/02 05:50:07;;;;;;;4.10;4.00;;;6.70;99.50;;;;;;5041745;28;20482;-81
2024/01/02 05:52:35;;;;;;;4.40;4.30;;;6.70;99.90;;;;;;5046205;28;20500;-79
2024/01/02 05:55:04;;;;;;;4.33;4.23;;;6.70;99.90;;;;;;5047988;28;20445;-79
2024/01/02 05:57:32;;;;;;;4.63;4.53;;;6.80;3.60;;;;;;5041665;28;20463;-80
2024/01/02 06:00:00;;;;;;;4.63;4.50;;;6.80;99.90;;;;;;5046201;28;21106;-81
2024/01/02 06:02:29;;;;;;;4.80;4.70;;;6.80;99.90;;;;;;5039915;28;20448;-80
2024/01/02 06:04:57;;;;;;;4.70;4.60;;;6.80;99.90;;;;;;5042841;28;20448;-79
2024/01/02 06:07:27;;;;;;;5.20;4.90;;;6.80;1.00;;;;;;5042282;28;20455;-79
2024/01/02 06:09:55;;;;;;;4.90;4.80;;;6.90;1.00;;;;;;5040365;28;20527;-80
2024/01/02 06:12:23;;;;;;;4.90;4.80;;;6.80;99.90;;;;;;5041991;28;20437;-80
2024/01/02 06:14:52;;;;;;;4.70;4.60;;;6.80;99.90;;;;;;5043869;28;20540;-79
2024/01/02 06:17:21;;;;;;;5.40;5.30;;;6.90;99.90;;;;;;5042168;28;20495;-81
2024/01/02 06:19:50;;;;;;;5.60;5.20;;;6.90;99.90;;;;;;5040334;28;20481;-80
2024/01/02 06:22:18;;;;;;;5.50;5.40;;;6.80;99.90;;;;;;5039776;28;20475;-80
2024/01/02 06:24:48;;;;;;;5.33;5.23;;;6.90;99.90;;;;;;5036001;28;20457;-80
2024/01/02 06:27:16;;;;;;;5.20;5.10;;;6.90;99.90;;;;;;5038206;28;20500;-79
2024/01/02 06:29:44;;;;;;;5.30;5.20;;;6.90;1.00;;;;;;5036268;28;20492;-79
2024/01/02 06:32:16;;;;;;;5.30;5.10;;;6.80;1.00;;;;;;5040364;28;20448;-79
2024/01/02 06:34:44;;;;;;;5.10;5.00;;;6.80;99.90;;;;;;5039773;28;20484;-79
2024/01/02 06:37:13;;;;;;;5.30;5.20;;;6.90;99.90;;;;;;5037330;28;20451;-79
2024/01/02 06:39:41;;;;;;;5.17;5.07;;;6.90;99.90;;;;;;5040333;28;20475;-79
2024/01/02 06:42:11;;;;;;;5.10;5.00;;;6.90;99.90;;;;;;5039077;28;20535;-81
2024/01/02 06:44:39;;;;;;;5.60;5.10;;;7.00;99.90;;;;;;5037248;28;20824;-80
2024/01/02 06:47:07;;;;;;;5.30;5.20;;;6.90;99.90;;;;;;5031944;28;20469;-80
2024/01/02 06:49:35;;;;;;;5.30;5.20;;;7.00;1.00;;;;;;5032457;28;20592;-79
2024/01/02 06:52:04;;;;;;;5.40;5.30;;;6.80;99.90;;;;;;5047724;28;20571;-81
2024/01/02 06:54:32;;;;;;;5.40;5.30;;;6.90;1.00;;;;;;5033156;28;20512;-81
2024/01/02 06:57:01;;;;;;;5.20;5.10;;;7.00;1.00;;;;;;5037856;28;20459;-79
2024/01/02 06:59:30;;;;;;;5.63;5.43;;;7.10;1.00;;;;;;5033498;28;20464;-78
2024/01/02 07:01:59;;;;;;;5.80;5.60;;;7.00;99.90;;;;;;5033953;28;20692;-79
2024/01/02 07:04:27;;;;;;;5.63;5.53;;;7.00;99.90;;;;;;5039262;28;20456;-80
2024/01/02 07:06:56;;;;;;;5.80;5.70;;;7.00;1.00;;;;;;5038266;28;20448;-79
2024/01/02 07:09:25;;;;;;;6.00;5.80;;;6.90;1.00;;;;;;5035530;28;21315;-79
2024/01/02 07:11:53;;;;;;;5.60;5.50;;;6.90;67.20;;;;;;5050229;28;20461;-80
2024/01/02 07:14:23;;;;;;;5.87;5.70;;;7.00;99.90;;;;;;5035740;28;20485;-80
2024/01/02 07:16:52;;;;;;;5.70;5.60;;;6.90;11.70;;;;;;5033717;28;20488;-80
2024/01/02 07:19:21;;;;;;;5.70;5.60;;;7.00;99.90;;;;;;5033774;28;20483;-80
2024/01/02 07:21:49;;;;;;;5.67;5.50;;;7.00;99.90;;;;;;5036934;28;20452;-80
2024/01/02 07:24:17;;;;;;;5.70;5.60;;;7.00;99.90;;;;;;5036443;28;20536;-80
2024/01/02 07:26:45;;;;;;;5.70;5.60;;;7.00;99.90;;;;;;5031562;28;20477;-79
2024/01/02 07:29:16;;;;;;;6.20;6.03;;;7.00;99.90;;;;;;5033232;28;20476;-80
2024/01/02 07:31:44;;;;;;;6.00;5.90;;;7.00;99.90;;;;;;5036864;28;20456;-80
2024/01/02 07:34:14;;;;;;;6.37;6.17;;;7.00;99.90;;;;;;5036434;28;20472;-80
2024/01/02 07:36:43;;;;;;;5.97;5.77;;;7.00;99.90;;;;;;5034317;28;20456;-79
2024/01/02 07:39:11;;;;;;;6.23;6.13;;;7.10;99.90;;;;;;5034207;28;20575;-79
2024/01/02 07:41:38;;;;;;;6.30;6.20;;;7.10;99.90;;;;;;5037353;28;20478;-81
2024/01/02 07:44:07;;;;;;;6.60;6.40;;;7.10;1.00;;;;;;5038750;28;20480;-81
2024/01/02 07:46:35;;;;;;;6.60;6.40;;;7.20;1.00;;;;;;5038186;28;20452;-81
2024/01/02 07:49:03;;;;;;;6.50;6.40;;;7.10;99.90;;;;;;5033246;28;20574;-81
2024/01/02 07:51:33;;;;;;;6.30;6.20;;;7.10;99.90;;;;;;5042824;28;20460;-80
2024/01/02 07:54:02;;;;;;;7.00;6.80;;;7.10;1.00;;;;;;5043200;28;20775;-79
2024/01/02 07:56:30;;;;;;;6.80;6.70;;;7.20;1.00;;;;;;5044354;28;20864;-81
2024/01/02 07:58:59;;;;;;;6.47;6.37;;;7.20;1.00;;;;;;5040015;28;21046;-79
2024/01/02 08:01:27;;;;;;;7.00;6.90;;;7.30;1.00;;;;;;5038785;28;20480;-79
2024/01/02 08:03:55;;;;;;;7.00;6.90;;;7.40;1.00;;;;;;5040679;28;20555;-79
2024/01/02 08:06:23;;;;;;;6.90;6.80;;;7.40;1.00;;;;;;5040504;28;20503;-79
2024/01/02 08:08:53;;;;;;;6.80;6.70;;;7.40;1.00;;;;;;5039136;28;20549;-78
2024/01/02 08:11:22;;;;;;;6.83;6.73;;;7.40;1.00;;;;;;5031994;28;20452;-79
2024/01/02 08:13:50;;;;;;;7.00;6.90;;;7.50;1.00;;;;;;5039291;28;20570;-79
2024/01/02 08:16:20;;;;;;;6.50;6.20;;;7.50;1.00;;;;;;5036270;28;20985;-81
2024/01/02 08:18:48;;;;;;;6.40;6.30;;;7.60;1.00;;;;;;5036659;28;20480;-78
2024/01/02 08:21:16;;;;;;;7.00;6.90;;;7.50;1.00;;;;;;5038889;28;20886;-81
2024/01/02 08:23:44;;;;;;;7.00;6.90;;;7.50;99.90;;;;;;5043672;28;20472;-80
2024/01/02 08:26:14;;;;;;;7.33;7.13;;;7.60;1.00;;;;;;5039747;28;20563;-79
2024/01/02 08:28:43;;;;;;;6.80;6.70;;;7.70;1.00;;;;;;5035707;28;21068;-80
2024/01/02 08:31:11;;;;;;;7.20;7.00;;;7.70;99.90;;;;;;5037929;28;20555;-79
2024/01/02 08:33:40;;;;;;;7.00;6.90;;;7.70;1.00;;;;;;5041236;28;20467;-79
2024/01/02 08:36:10;;;;;;;7.33;7.23;;;7.70;99.90;;;;;;5039142;28;20455;-80
2024/01/02 08:38:38;;;;;;;7.10;7.00;;;7.70;99.90;;;;;;5037507;28;20494;-79
2024/01/02 08:41:07;;;;;;;7.10;6.90;;;7.80;99.90;;;;;;5037064;28;20912;-79
2024/01/02 08:43:37;;;;;;;7.20;7.10;;;7.80;99.90;;;;;;5039040;28;20515;-79
2024/01/02 08:46:05;;;;;;;7.30;7.20;;;7.80;99.90;;;;;;5040781;28;20496;-80
2024/01/02 08:48:35;;;;;;;7.33;7.23;;;7.70;99.90;;;;;;5038102;28;20462;-80
2024/01/02 08:51:04;;;;;;;6.90;6.80;;;7.80;99.90;;;;;;5040060;28;20503;-80
2024/01/02 08:53:32;;;;;;;7.30;7.20;;;7.90;99.90;;;;;;5041508;28;20457;-80
2024/01/02 08:56:01;;;;;;;7.60;7.50;;;7.90;99.90;;;;;;5040509;28;20499;-81
2024/01/02 08:58:29;;;;;;;7.40;7.30;;;7.90;99.90;;;;;;5038571;28;20550;-80
2024/01/02 09:00:59;;;;;;;7.50;7.40;;;7.90;99.90;;;;;;5037732;28;20455;-80
2024/01/02 09:03:30;;;;;;;7.67;7.57;;;7.90;99.90;;;;;;5041143;28;20448;-80
2024/01/02 09:05:58;;;;;;;7.63;7.53;;;7.90;99.90;;;;;;5038153;28;20485;-79
2024/01/02 09:08:27;;;;;;;7.80;7.70;;;7.90;99.90;;;;;;5037466;28;20451;-79
2024/01/02 09:10:56;;;;;;;7.70;7.40;;;8.00;99.90;;;;;;5038294;28;20457;-80
2024/01/02 09:13:25;;;;;;;7.90;7.80;;;8.00;99.90;;;;;;5041447;28;20492;-79
2024/01/02 09:15:53;;;;;;;7.80;7.70;;;8.10;99.90;;;;;;5040675;28;20507;-80
2024/01/02 09:18:23;;;;;;;8.03;7.93;;;8.00;99.90;;;;;;5037919;28;20457;-80
2024/01/02 09:20:51;;;;;;;7.97;7.87;;;8.00;99.90;;;;;;5041635;28;21064;-80
2024/01/02 09:23:20;;;;;;;7.90;7.80;;;8.10;21.00;;;;;;5039706;28;20962;-79
2024/01/02 09:25:51;;;;;;;8.00;7.90;;;8.10;99.90;;;;;;5039307;28;20452;-80
2024/01/02 09:28:22;;;;;;;7.50;7.40;;;8.10;35.90;;;;;;5041077;28;21031;-78
2024/01/02 09:30:51;;;;;;;7.97;7.87;;;8.20;1.00;;;;;;5040904;28;20457;-81
2024/01/02 09:33:20;;;;;;;8.30;8.20;;;8.20;1.00;;;;;;5037998;28;20444;-79
2024/01/02 09:35:50;;;;;;;8.60;8.47;;;8.10;1.00;;;;;;5042031;28;20561;-79
2024/01/02 09:38:19;;;;;;;8.97;8.87;;;8.20;5.70;;;;;;5042563;28;20463;-78
2024/01/02 09:41:06;;;;;;;9.00;8.80;;;8.20;1.00;;;;;;5042304;28;20441;-79
2024/01/02 09:43:48;;;;;;;8.70;8.50;;;8.20;99.90;;;;;;5035896;28;21019;-81
2024/01/02 09:46:28;;;;;;;7.87;7.77;;;8.20;1.00;;;;;;5037024;28;20449;-80
2024/01/02 09:49:14;;;;;;;7.93;7.83;;;8.30;98.80;;;;;;5040237;28;20568;-80
2024/01/02 09:51:55;;;;;;;8.03;7.93;;;8.20;1.00;;;;;;5034054;28;20476;-80
2024/01/02 09:54:39;;;;;;;8.20;8.10;;;8.20;1.00;;;;;;5038178;28;20456;-79
2024/01/02 09:57:15;;;;;;;8.60;8.40;;;8.30;1.00;;;;;;5037399;28;20556;-79
2024/01/02 09:59:57;;;;;;;8.43;8.30;;;8.30;1.00;;;;;;5037837;28;20990;-79
2024/01/02 10:03:01;;;;;;;8.73;8.53;;;8.30;99.90;;;;;;5036905;28;20525;-79
2024/01/02 10:05:46;;;;;;;8.57;8.40;;;8.40;1.00;;;;;;5034696;28;20496;-80
2024/01/02 10:08:43;;;;;;;8.10;8.00;;;8.30;99.90;;;;;;5037634;28;20456;-78
2024/01/02 10:11:25;;;;;;;8.20;8.10;;;8.40;99.90;;;;;;5036112;28;20465;-79
2024/01/02 10:14:02;;;;;;;8.50;8.40;;;8.40;9.40;;;;;;5042011;28;20455;-80
2024/01/02 10:16:38;;;;;;;8.10;8.00;;;8.40;1.00;;;;;;5041161;28;20503;-79
2024/01/02 10:19:23;;;;;;;8.40;8.30;;;8.50;99.90;;;;;;5039974;28;20550;-80
2024/01/02 10:22:07;;;;;;;8.67;8.57;;;8.50;84.10;;;;;;5039221;28;20456;-78
2024/01/02 10:24:51;;;;;;;8.83;8.70;;;8.50;99.90;;;;;;5037524;28;20555;-79
2024/01/02 10:27:27;;;;;;;9.07;8.87;;;8.50;99.90;;;;;;5035381;28;20506;-78
2024/01/02 10:30:06;;;;;;;9.10;9.00;;;8.60;99.90;;;;;;5037821;28;20480;-81
2024/01/02 10:32:46;;;;;;;9.10;9.00;;;8.70;1.00;;;;;;5036349;28;20448;-80
2024/01/02 10:35:21;;;;;;;8.57;8.47;;;8.70;1.00;;;;;;5036332;28;20552;-79
2024/01/02 10:38:04;;;;;;;8.70;8.60;;;8.70;1.00;;;;;;5038382;28;20539;-79
2024/01/02 10:40:37;;;;;;;8.70;8.60;;;8.70;16.20;;;;;;5038915;28;20564;-80
2024/01/02 10:43:13;;;;;;;8.80;8.70;;;8.70;1.00;;;;;;5036924;28;20489;-79
2024/01/02 10:45:51;;;;;;;8.90;8.70;;;8.70;99.90;;;;;;5038287;28;20514;-79
2024/01/02 10:48:37;;;;;;;8.70;8.40;;;8.80;99.90;;;;;;5035916;28;20494;-79
2024/01/02 10:51:08;;;;;;;8.63;8.53;;;8.80;99.90;;;;;;5037499;28;20895;-79
2024/01/02 10:53:46;;;;;;;8.80;8.60;;;8.80;99.90;;;;;;5037134;28;20444;-79
2024/01/02 10:56:26;;;;;;;8.70;8.60;;;8.80;99.90;;;;;;5035810;28;20467;-80
2024/01/02 10:59:04;;;;;;;9.50;9.13;;;8.90;1.00;;;;;;5036872;28;20914;-79
2024/01/02 11:01:36;;;;;;;8.93;8.73;;;8.90;1.00;;;;;;5036285;28;20460;-79
2024/01/02 11:04:12;;;;;;;8.60;8.50;;;8.90;1.00;;;;;;5037311;28;20820;-78
2024/01/02 11:06:45;;;;;;;8.80;8.70;;;8.90;99.90;;;;;;5036009;28;20456;-78
2024/01/02 11:09:24;;;;;;;8.73;8.60;;;8.90;1.00;;;;;;5038491;28;20836;-80
2024/01/02 11:11:55;;;;;;;8.70;8.60;;;9.00;1.00;;;;;;5037564;28;20448;-79
2024/01/02 11:14:43;;;;;;;9.07;8.80;;;8.90;1.00;;;;;;5039149;28;21254;-79
2024/01/02 11:17:14;;;;;;;9.17;9.07;;;9.00;99.90;;;;;;5033304;28;20460;-79
2024/01/02 11:19:52;;;;;;;8.67;8.57;;;9.00;99.90;;;;;;5036709;28;20545;-78
2024/01/02 11:22:28;;;;;;;9.30;9.10;;;9.10;99.90;;;;;;5037727;28;20436;-79
2024/01/02 11:25:02;;;;;;;9.00;8.90;;;9.20;95.30;;;;;;5038703;28;20495;-79
2024/01/02 11:27:32;;;;;;;9.27;9.10;;;9.20;1.00;;;;;;5033224;28;20459;-79
2024/01/02 11:30:05;;;;;;;8.80;8.70;;;9.20;99.90;;;;;;5037981;28;21057;-79
2024/01/02 11:32:48;;;;;;;9.10;9.00;;;9.30;99.90;;;;;;5034932;28;20453;-79
2024/01/02 11:35:17;;;;;;;9.10;9.00;;;9.30;67.50;;;;;;5037000;28;21510;-80
2024/01/02 11:37:54;;;;;;;8.53;8.43;;;9.30;7.40;;;;;;5033268;28;20448;-79
2024/01/02 11:40:29;;;;;;;8.30;8.20;;;9.30;99.90;;;;;;5034270;28;20484;-80
2024/01/02 11:43:07;;;;;;;8.90;8.80;;;9.30;99.90;;;;;;5032978;28;20444;-78
2024/01/02 11:45:39;;;;;;;8.70;8.60;;;9.30;1.00;;;;;;5035989;28;20483;-80
2024/01/02 11:48:19;;;;;;;9.03;8.80;;;9.30;99.90;;;;;;5032768;28;20570;-79
2024/01/02 11:50:52;;;;;;;9.03;8.83;;;9.40;99.90;;;;;;5031411;28;20888;-79
2024/01/02 11:53:36;;;;;;;9.00;8.90;;;9.30;1.00;;;;;;5037601;28;20466;-80
2024/01/02 11:56:07;;;;;;;9.80;9.50;;;9.40;99.90;;;;;;5034388;28;20472;-81
2024/01/02 11:58:43;;;;;;;9.50;9.30;;;9.40;1.00;;;;;;5035969;28;20531;-79
2024/01/02 12:01:19;;;;;;;9.57;9.37;;;9.40;99.90;;;;;;5035989;28;20451;-79
2024/01/02 12:04:01;;;;;;;9.20;9.10;;;9.40;1.00;;;;;;5036972;28;20827;-80
2024/01/02 12:06:39;;;;;;;9.83;9.63;;;9.40;1.00;;;;;;5035802;28;21030;-78
2024/01/02 12:09:13;;;;;;;9.53;9.33;;;9.40;99.90;;;;;;5033975;28;20463;-79
2024/01/02 12:11:48;;;;;;;9.70;9.60;;;9.30;1.00;;;;;;5035031;28;20514;-80
2024/01/02 12:14:36;;;;;;;9.50;9.30;;;9.30;1.00;;;;;;5037137;28;21029;-79
2024/01/02 12:17:08;;;;;;;9.53;9.40;;;9.30;99.90;;;;;;5034623;28;20469;-79
2024/01/02 12:19:55;;;;;;;9.30;9.10;;;9.30;99.90;;;;;;5035622;28;20476;-78
2024/01/02 12:22:24;;;;;;;9.50;9.40;;;9.30;90.30;;;;;;5034060;28;20453;-80
2024/01/02 12:24:52;;;;;;;9.43;9.30;;;9.30;1.00;;;;;;5033040;28;20444;-80
2024/01/02 12:27:23;;;;;;;9.30;9.10;;;9.30;1.00;;;;;;5035038;28;20552;-80
2024/01/02 12:30:00;;;;;;;9.67;9.47;;;9.30;1.00;;;;;;5038608;28;20475;-79
2024/01/02 12:32:44;;;;;;;10.27;10.07;;;9.20;1.00;;;;;;5040687;28;21070;-79
2024/01/02 12:35:24;;;;;;;10.00;9.80;;;9.20;99.90;;;;;;5041616;28;20545;-80
2024/01/02 12:38:14;;;;;;;10.73;10.53;;;9.20;99.90;;;;;;5037964;28;20487;-79
2024/01/02 12:40:45;;;;;;;9.80;9.60;;;9.20;1.00;;;;;;5041067;28;21115;-79
2024/01/02 12:43:19;;;;;;;10.37;10.17;;;9.20;1.00;;;;;;5039786;28;21017;-79
2024/01/02 12:45:53;;;;;;;9.60;9.37;;;9.20;1.00;;;;;;5039883;28;20555;-80
2024/01/02 12:48:23;;;;;;;10.27;10.07;;;9.20;1.00;;;;;;5038469;28;21341;-80
2024/01/02 12:50:55;;;;;;;9.40;9.30;;;9.20;99.90;;;;;;5037565;28;20442;-80
2024/01/02 12:53:30;;;;;;;9.97;9.87;;;9.20;1.00;;;;;;5038887;28;20467;-79
2024/01/02 12:56:04;;;;;;;10.00;9.80;;;9.20;99.90;;;;;;5039978;28;21023;-80
2024/01/02 12:58:33;;;;;;;10.17;9.97;;;9.20;1.00;;;;;;5038293;28;20513;-80
2024/01/02 13:01:04;;;;;;;10.03;9.83;;;9.30;22.90;;;;;;5036363;28;20455;-80
2024/01/02 13:03:33;;;;;;;10.27;10.07;;;9.20;5.10;;;;;;5041019;28;21050;-79
2024/01/02 13:06:03;;;;;;;9.90;9.80;;;9.20;68.60;;;;;;5038093;28;20468;-79
2024/01/02 13:08:31;;;;;;;10.30;10.10;;;9.20;99.90;;;;;;5038031;28;20469;-79
2024/01/02 13:11:00;;;;;;;10.00;9.90;;;9.20;33.70;;;;;;5036352;28;20452;-79
2024/01/02 13:13:28;;;;;;;9.87;9.67;;;9.20;1.00;;;;;;5034256;28;20461;-79
2024/01/02 13:15:59;;;;;;;10.07;9.87;;;9.20;1.00;;;;;;5037807;28;20907;-79
2024/01/02 13:18:29;;;;;;;10.03;9.83;;;9.20;39.50;;;;;;5052790;28;20538;-80